マナウス の空港の天気 - METARとTAF

エドワルド ゴメス国際空港(マナウス) ( SBEG / MAO ) - ブラジル アマゾナス州マナウス
飛行場実況気象(Metar)
観測時間04/21 13:00 AMT (04/21 17:00 UTC)
風向・風速南南西 1m/s
視程10km以上
天気現象周辺でしゅう雨
全天の8割程度の雲 雲底高度 610m
少しの雲 雲底高度 760m
全天の4割程度の雲 雲底高度 3050m
気温30℃
湿度66%
気圧-
METARSBEG 211700Z 20002KT 9999 VCSH BKN020 FEW025TCU SCT100 30/23 Q1 011
過去の天気等 Google飛行場航空写真 Wunderground天気予報

過去48時間のMETAR

飛行場予報(TAF)
発表時間: 4/21 06:00 AMT (4/21 10:00 UTC)
予報対象時間: 21日8時 AMT ~ 22日8時 AMT
風向・風速北北西 3m/s
視程10km以上
全天の4割程度の雲 雲底高度 300m
21日8時 AMT から 確率 30% で
全天の8割程度の雲 雲底高度 240m
21日9時 AMT ~ 21日11時 AMT に徐々に
風向・風速北北東 3m/s
全天の4割程度の雲 雲底高度 460m
少しの塔状積雲 雲底高度 760m
21日15時 AMT から 確率 30% で
天気現象
全天の4割程度の雲 雲底高度 300m
少しの積乱雲 雲底高度 760m
21日18時 AMT ~ 21日19時 AMT に徐々に
全天の4割程度の雲 雲底高度 610m
21日22時 AMT ~ 21日24時 AMT に徐々に
視程10km以上
なし
22日3時 AMT ~ 22日5時 AMT に徐々に
視程10km以上
全天の4割程度の雲 雲底高度 300m
22日7時 AMT から 確率 40% で
全天の8割程度の雲 雲底高度 240m
TAF SBEG 211000Z 2112/2212 34005KT 9999 SCT010 TX30/2117Z TN24/2208Z
PROB30 2112/2113 BKN008
BECMG 2113/2115 02005KT SCT015 FEW025TCU
PROB30 2119/2120 TS SCT010 FEW025CB
BECMG 2122/2123 SCT020
BECMG 2202/2204 CAVOK
BECMG 2207/2209 9999 SCT010
PROB40 2211/2212 BKN008 RMK PEU